Wilmington, DE (19898)

5:28 PM EDT on August 23, 2016 (GMT -0400)
DEOS | | Change Station

Elev 9 ft 39.73 °N, 75.52 °W | Updated 38 minutes ago

Clear
Clear
81 °F
Feels Like 80 °F
N
1
Wind Variable Wind from SSW
Gusts 5.0 mph

Today
High -- | Low -- °F
--% Chance of Precip.
Yesterday
High -- | Low -- °F
Precip. -- in
Pressure 30.28 in
Visibility 10.0 miles
Clouds Clear
Heat Index 80 °F
Dew Point 51 °F
Humidity 36%
Rainfall in
Snow Depth Not available.
6:22 AM 7:46 PM
Waning Gibbous, 64% visible
METAR KILG 232051Z 30007KT 10SM CLR 28/12 A3028 RMK AO2 SLP254 T02780117 56014
Pressure 30.28 in
Visibility 10.0 miles
Clouds Clear
Heat Index 80 °F
Dew Point 51 °F
Humidity 36%
Rainfall in
Snow Depth Not available.
6:22 AM 7:46 PM
Waning Gibbous, 64% visible
METAR KILG 232051Z 30007KT 10SM CLR 28/12 A3028 RMK AO2 SLP254 T02780117 56014

10-Day Weather Forecast

Almanac

Astronomy

Aug. 23, 2016 Rise Set
Actual Time
Civil Twilight
Nautical Twilight
Astronomical Twilight
Moon
Length of Visible Light
Length of Day
Tomorrow will be .
, % of the Moon is Illuminated

Today's Extremes

State Highs State Lows

Community

WunderPhotos

Upload Photos

1,934,464 photos uploaded!

WunderBlog® & News

Nearby

Air Quality

  Air Quality AQ Index Pollutant
Not available.

Snow Depth

Station Depth Elevation

Earthquake Activity

City Distance Mag. Time & Date
Minimum magnitude displayed is 2.5.

Coastal Water Temperatures

Place Temperature

Stations

Nearby Weather Stations

Station Location Temp. Windchill Dew Point Humidity Wind Precip. Elev Updated Type
                   

Watches & Warnings

There are currently no watches in effect.